Disclaimer

Please do not use the information listed here in-flight or in-navigation, as they are not provided to us by the airports but are provided by volunteers, so they might be outdated.

Search


Regions


Airport information page

Radio informations:
Tower (TWR) - 124.975 MHz
LANGEN RADAR - 118.75 MHz
MIL - 136.25 MHz
APRON - 121.95 MHz
LANGEN INFO - 129.875 MHz
Ground (GND) - 121.725 MHz
Director (DIR) - 121.05 MHz
Clearance delivery - 121.85 MHz
Automatic Terminal Information Service (ATIS) - 112.15 MHz

Airport informations:
Latitude: 50° 51' 57.30" N
Longitude: 007° 08' 33.88" E
Elevation: 302 feet - 92 meters
Operating hours: 24 hour operations
Operating agency: Military-civil joint use airport
Timezone: UTC+1(+2DT) - Last Sunday in March to last Sunday in October
Fuel: Jet A1+, Jet A1 with icing inhibitor.

Jet A1, without icing nhibitor.

JP-8, SemiKeroscene MIL Spec T-83133, without icing inhibitor

100/130 MIL Spec, low lead, aviation gasoline (BLUE)

Runway information:
06/24 - 8067 x 148 feet< - >2459 x 45 meters
14R/32L - 6112 x 148 feet< - >1863 x 45 meters
14L/32R - 12516 x 197 feet< - >3815 x 60 meters

Recent METARs:
EDDK 201420Z 09012KT 070V130 9999 OVC030 05/M01 Q1007 NOSIG
EDDK 201450Z 11010KT 070V150 9999 OVC030 04/M02 Q1007 NOSIG
EDDK 201520Z 10009KT 060V180 9999 OVC030 04/M02 Q1007 NOSIG

Airport on the map: